Bellona, NY

1:00 AM EST on December 25, 2014 (GMT -0500)
Tompkins County | Change Station
CLOSE
Current Station
Airport
Location: Ithaca,
Elevation: 1099 ft
Nearby Weather Stations
Active Advisory: Wind Advisory Active Notice: Record Report

Elev 1099 ft 42.49 °N, 76.46 °W | Updated 4 minutes ago

Rain
Rain
57 °F
Feels Like 57 °F
N
13
Wind Variable Wind from SW
Gusts 21 mph

Today
High -- | Low -- °F
--% Chance of Precip.
Yesterday
High -- | Low -- °F
Precip. -- in
7:37 AM 4:39 PM
Waxing Crescent, 13% visible
Pressure 29.40 in
Visibility 6.0 miles
Clouds Mostly Cloudy 1400 ft
Overcast 2100 ft
Dew Point 54 °F
Humidity 90%
Rainfall 0.00 in
Snow Depth Not available.
UV 0 out of 12
Pollen .10 out of 12
Air Quality Not available.
Flu Activity Not available.
METAR KITH 250556Z AUTO 23011G18KT 6SM -RA BR BKN014 OVC021 14/12 A2939 RMK AO2 55006 60000 T01380122 10144 20116 BKN V OVC RAB46 P0000 PRESRR SLP954

More Conditions Fewer Conditions

Pressure 29.40 in
Visibility 6.0 miles
Clouds Mostly Cloudy 1400 ft
Overcast 2100 ft
Dew Point 54 °F
Humidity 90%
Rainfall 0.00 in
Snow Depth Not available.
UV 0 out of 12
Pollen .10 out of 12
Air Quality Not available.
Flu Activity Not available.
METAR KITH 250556Z AUTO 23011G18KT 6SM -RA BR BKN014 OVC021 14/12 A2939 RMK AO2 55006 60000 T01380122 10144 20116 BKN V OVC RAB46 P0000 PRESRR SLP954

More Conditions Fewer Conditions

10-Day Weather Forecast

Almanac

Astronomy

Dec. 25, 2014 Rise Set
Actual Time
Civil Twilight
Nautical Twilight
Astronomical Twilight
Moon
Length of Visible Light
Length of Day
Tomorrow will be .
, % of the Moon is Illuminated

Today's Extremes

State Highs State Lows

Community

WunderPhotos

Upload Photos

1,780,245 photos uploaded!

WunderBlogs® & News

Nearby

Air Quality

  Air Quality AQ Index Pollutant
Not available.

Snow Depth

Station Depth Elevation

Earthquake Activity

City Distance Mag. Time & Date
Minimum magnitude displayed is 2.5.

Coastal Water Temperatures

Place Temperature

Nearby Weather Stations